Time;durP1;ratioP1;P1;durP2;ratioP2;P2;SDS_P1;SDS_P2;PMS_P1;PMS_P2;Temp;Humidity;BMP_temperature;BMP_pressure;BME280_temperature;BME280_humidity;BME280_pressure;Samples;Min_cycle;Max_cycle;Signal;HPM_P1;HPM_P2
2023/01/07 00:02:19;;;;;;;;;3.67;3.67;;;;;;;;5018885;28;45492;-80
2023/01/07 00:04:44;;;;;;;;;4.00;3.33;;;;;;;;5011516;28;45422;-79
2023/01/07 00:07:10;;;;;;;;;3.67;2.00;;;;;;;;5019449;28;46297;-78
2023/01/07 00:09:35;;;;;;;;;4.33;3.00;;;;;;;;5013014;28;45430;-79
2023/01/07 00:12:00;;;;;;;;;3.33;3.33;;;;;;;;5019108;28;45282;-81
2023/01/07 00:14:25;;;;;;;;;4.00;2.00;;;;;;;;5018181;28;45602;-77
2023/01/07 00:16:50;;;;;;;;;2.33;2.33;;;;;;;;5015331;28;45403;-77
2023/01/07 00:19:16;;;;;;;;;2.00;2.00;;;;;;;;5014621;28;45422;-78
2023/01/07 00:21:41;;;;;;;;;2.00;2.00;;;;;;;;5013058;28;45271;-77
2023/01/07 00:24:08;;;;;;;;;3.00;3.00;;;;;;;;5017139;28;46037;-78
2023/01/07 00:26:34;;;;;;;;;2.00;2.00;;;;;;;;5018317;28;45287;-78
2023/01/07 00:29:00;;;;;;;;;3.00;3.00;;;;;;;;5013615;28;45198;-77
2023/01/07 00:31:26;;;;;;;;;2.00;2.00;;;;;;;;5014546;28;45496;-78
2023/01/07 00:36:26;;;;;;;;;4.00;2.67;;;;;;;;5014903;28;45408;-79
2023/01/07 00:38:56;;;;;;;;;2.67;2.00;;;;;;;;5009097;28;45548;-78
2023/01/07 00:41:21;;;;;;;;;2.00;2.00;;;;;;;;5018410;28;45485;-76
2023/01/07 00:43:46;;;;;;;;;3.33;3.00;;;;;;;;5010338;28;45497;-77
2023/01/07 00:46:13;;;;;;;;;2.00;2.00;;;;;;;;5019190;28;46750;-78
2023/01/07 00:48:39;;;;;;;;;1.33;1.33;;;;;;;;5021328;28;45279;-78
2023/01/07 00:51:04;;;;;;;;;3.00;3.00;;;;;;;;5017020;28;45225;-78
2023/01/07 00:53:29;;;;;;;;;3.00;2.00;;;;;;;;5013929;28;45257;-78
2023/01/07 00:55:55;;;;;;;;;2.00;2.00;;;;;;;;5016100;28;46069;-79
2023/01/07 00:58:21;;;;;;;;;2.00;2.00;;;;;;;;5012187;28;45261;-78
2023/01/07 01:00:47;;;;;;;;;2.00;2.00;;;;;;;;5013027;28;45459;-78
2023/01/07 01:03:12;;;;;;;;;2.33;2.33;;;;;;;;5011817;28;45257;-78
2023/01/07 01:05:37;;;;;;;;;2.67;2.67;;;;;;;;5017093;28;45700;-81
2023/01/07 01:08:03;;;;;;;;;2.00;1.67;;;;;;;;5011396;28;45374;-77
2023/01/07 01:10:28;;;;;;;;;2.00;2.00;;;;;;;;5014310;28;45264;-77
2023/01/07 01:12:53;;;;;;;;;2.67;2.67;;;;;;;;5013546;28;45382;-78
2023/01/07 01:15:18;;;;;;;;;3.00;3.00;;;;;;;;5017160;28;45380;-78
2023/01/07 01:17:44;;;;;;;;;2.00;2.00;;;;;;;;5012443;28;45291;-78
2023/01/07 01:20:11;;;;;;;;;2.00;2.00;;;;;;;;5027162;28;45294;-78
2023/01/07 01:22:36;;;;;;;;;2.00;2.00;;;;;;;;5016531;28;46254;-77
2023/01/07 01:25:01;;;;;;;;;2.67;2.67;;;;;;;;5014834;28;45355;-78
2023/01/07 01:27:28;;;;;;;;;2.00;2.00;;;;;;;;4999546;28;45798;-79
2023/01/07 01:29:53;;;;;;;;;2.00;2.00;;;;;;;;5029340;28;45277;-77
2023/01/07 01:32:18;;;;;;;;;2.00;2.00;;;;;;;;5015467;28;45245;-78
2023/01/07 01:34:43;;;;;;;;;5.00;1.00;;;;;;;;5019567;28;45322;-78
2023/01/07 01:37:09;;;;;;;;;1.00;1.00;;;;;;;;5016729;28;45355;-78
2023/01/07 01:39:34;;;;;;;;;0.00;0.00;;;;;;;;5019387;28;45337;-78
2023/01/07 01:42:00;;;;;;;;;2.00;2.00;;;;;;;;5017061;28;46011;-78
2023/01/07 01:44:36;;;;;;;;;3.67;2.00;;;;;;;;5017527;28;48289;-77
2023/01/07 01:47:04;;;;;;;;;2.00;2.00;;;;;;;;5011076;28;45380;-79
2023/01/07 01:49:32;;;;;;;;;1.00;1.00;;;;;;;;5016283;28;45341;-81
2023/01/07 01:52:01;;;;;;;;;2.00;2.00;;;;;;;;5018405;28;46361;-78
2023/01/07 01:54:27;;;;;;;;;1.00;1.00;;;;;;;;5004541;28;46674;-77
2023/01/07 01:56:54;;;;;;;;;1.00;1.00;;;;;;;;5018258;28;45705;-79
2023/01/07 01:59:21;;;;;;;;;1.00;1.00;;;;;;;;5008340;28;45302;-80
2023/01/07 02:01:47;;;;;;;;;2.33;2.00;;;;;;;;5010277;28;45335;-79
2023/01/07 02:04:14;;;;;;;;;2.00;2.00;;;;;;;;5007174;28;45640;-79
2023/01/07 02:06:43;;;;;;;;;2.00;2.00;;;;;;;;5006837;28;45553;-79
2023/01/07 02:09:12;;;;;;;;;3.33;1.00;;;;;;;;5009180;28;45243;-78
2023/01/07 02:11:37;;;;;;;;;1.00;1.00;;;;;;;;5013503;28;45390;-77
2023/01/07 02:14:05;;;;;;;;;1.00;1.00;;;;;;;;5012003;28;45404;-77
2023/01/07 02:16:50;;;;;;;;;2.33;2.00;;;;;;;;5013312;28;45221;-78
2023/01/07 02:19:28;;;;;;;;;2.33;1.33;;;;;;;;5011121;28;45347;-77
2023/01/07 02:22:00;;;;;;;;;2.00;2.00;;;;;;;;5009464;28;45390;-77
2023/01/07 02:24:51;;;;;;;;;1.00;1.00;;;;;;;;5018557;28;47065;-78
2023/01/07 02:27:33;;;;;;;;;1.00;1.00;;;;;;;;5013190;28;45427;-78
2023/01/07 02:30:17;;;;;;;;;2.00;1.33;;;;;;;;5015815;28;45387;-79
2023/01/07 02:33:00;;;;;;;;;1.33;1.33;;;;;;;;5003001;28;45309;-78
2023/01/07 02:35:44;;;;;;;;;3.33;1.00;;;;;;;;5017374;28;45445;-78
2023/01/07 02:38:12;;;;;;;;;1.00;1.00;;;;;;;;5009078;28;45304;-78
2023/01/07 02:40:47;;;;;;;;;1.67;1.67;;;;;;;;5016545;28;45210;-78
2023/01/07 02:43:26;;;;;;;;;3.00;1.33;;;;;;;;5007842;28;45234;-78
2023/01/07 02:45:59;;;;;;;;;2.00;1.33;;;;;;;;5017171;28;46295;-79
2023/01/07 02:48:24;;;;;;;;;1.00;1.00;;;;;;;;5015140;28;45305;-78
2023/01/07 02:50:49;;;;;;;;;1.00;1.00;;;;;;;;5016555;28;45358;-78
2023/01/07 02:53:16;;;;;;;;;1.67;0.00;;;;;;;;5011018;28;45767;-78
2023/01/07 02:55:47;;;;;;;;;1.00;1.00;;;;;;;;5015337;28;45525;-78
2023/01/07 02:58:26;;;;;;;;;2.00;2.00;;;;;;;;5007652;28;45406;-78
2023/01/07 03:01:10;;;;;;;;;1.00;1.00;;;;;;;;5011177;28;45313;-78
2023/01/07 03:03:36;;;;;;;;;1.33;1.33;;;;;;;;5007250;28;47031;-77
2023/01/07 03:06:20;;;;;;;;;1.00;1.00;;;;;;;;5015384;28;46617;-77
2023/01/07 03:09:21;;;;;;;;;1.00;1.00;;;;;;;;5005697;28;45313;-77
2023/01/07 03:11:52;;;;;;;;;3.00;0.00;;;;;;;;4978349;28;45556;-76
2023/01/07 03:14:30;;;;;;;;;3.33;2.00;;;;;;;;5005668;28;46759;-78
2023/01/07 03:16:59;;;;;;;;;4.00;2.00;;;;;;;;5015780;28;46867;-78
2023/01/07 03:19:27;;;;;;;;;1.67;1.67;;;;;;;;5026642;28;45259;-77
2023/01/07 03:21:54;;;;;;;;;1.67;1.67;;;;;;;;5009890;28;45339;-76
2023/01/07 03:24:21;;;;;;;;;1.67;1.00;;;;;;;;5016614;28;45332;-77
2023/01/07 03:26:48;;;;;;;;;1.00;1.00;;;;;;;;5011837;28;46282;-77
2023/01/07 03:29:14;;;;;;;;;1.33;1.00;;;;;;;;5012379;28;45264;-77
2023/01/07 03:31:50;;;;;;;;;2.00;2.00;;;;;;;;5011438;28;45648;-77
2023/01/07 03:34:16;;;;;;;;;2.00;1.67;;;;;;;;5012102;28;46821;-77
2023/01/07 03:36:44;;;;;;;;;1.00;1.00;;;;;;;;5011984;28;45357;-77
2023/01/07 03:39:11;;;;;;;;;1.00;1.00;;;;;;;;5011845;28;45442;-78
2023/01/07 03:44:22;;;;;;;;;2.00;1.00;;;;;;;;5016044;28;45275;-77
2023/01/07 03:46:48;;;;;;;;;1.00;1.00;;;;;;;;5007187;28;45275;-77
2023/01/07 03:49:13;;;;;;;;;2.00;2.00;;;;;;;;5004939;28;45404;-78
2023/01/07 03:51:39;;;;;;;;;1.33;1.00;;;;;;;;5015329;28;45307;-77
2023/01/07 03:54:04;;;;;;;;;0.67;0.67;;;;;;;;5007945;28;46075;-77
2023/01/07 03:56:29;;;;;;;;;1.33;1.33;;;;;;;;5015249;28;46803;-79
2023/01/07 03:58:54;;;;;;;;;2.00;1.00;;;;;;;;5007627;28;45296;-78
2023/01/07 04:01:19;;;;;;;;;2.00;1.00;;;;;;;;5018368;28;45592;-78
2023/01/07 04:03:45;;;;;;;;;2.00;1.00;;;;;;;;5007749;28;45703;-78
2023/01/07 04:06:10;;;;;;;;;1.00;1.00;;;;;;;;5013462;28;46038;-78
2023/01/07 04:08:36;;;;;;;;;2.33;1.33;;;;;;;;5011467;28;45323;-78
2023/01/07 04:11:01;;;;;;;;;0.67;0.67;;;;;;;;5014219;28;45540;-77
2023/01/07 04:13:26;;;;;;;;;1.00;1.00;;;;;;;;5011685;28;45257;-79
2023/01/07 04:15:51;;;;;;;;;0.00;0.00;;;;;;;;5020116;28;45476;-78
2023/01/07 04:18:16;;;;;;;;;0.67;0.67;;;;;;;;5015004;28;45362;-79
2023/01/07 04:20:46;;;;;;;;;0.00;0.00;;;;;;;;5016167;28;45668;-78
2023/01/07 04:23:11;;;;;;;;;0.00;0.00;;;;;;;;5014060;28;46097;-79
2023/01/07 04:25:36;;;;;;;;;1.67;1.67;;;;;;;;5015559;28;46138;-79
2023/01/07 04:28:01;;;;;;;;;0.00;0.00;;;;;;;;5009912;28;45278;-77
2023/01/07 04:30:26;;;;;;;;;0.00;0.00;;;;;;;;5005367;28;45222;-80
2023/01/07 04:32:52;;;;;;;;;1.00;1.00;;;;;;;;5004024;28;44973;-81
2023/01/07 04:35:17;;;;;;;;;1.67;1.67;;;;;;;;5004836;28;45257;-81
2023/01/07 04:37:42;;;;;;;;;1.67;0.33;;;;;;;;5009120;28;45514;-80
2023/01/07 04:40:07;;;;;;;;;1.00;1.00;;;;;;;;5008006;28;45474;-79
2023/01/07 04:42:33;;;;;;;;;1.00;1.00;;;;;;;;5002498;28;45194;-80
2023/01/07 04:44:58;;;;;;;;;1.67;0.67;;;;;;;;5002245;28;47087;-80
2023/01/07 04:47:23;;;;;;;;;2.33;1.00;;;;;;;;5002269;28;45288;-80
2023/01/07 04:49:48;;;;;;;;;0.00;0.00;;;;;;;;5003787;28;45151;-79
2023/01/07 04:52:14;;;;;;;;;1.00;1.00;;;;;;;;5005215;28;46098;-80
2023/01/07 04:54:39;;;;;;;;;1.00;1.00;;;;;;;;5002491;28;45438;-78
2023/01/07 04:57:04;;;;;;;;;1.33;1.00;;;;;;;;5003922;28;45490;-79
2023/01/07 04:59:29;;;;;;;;;1.00;1.00;;;;;;;;5003907;28;45591;-79
2023/01/07 05:01:55;;;;;;;;;1.00;1.00;;;;;;;;5000704;28;45271;-78
2023/01/07 05:04:20;;;;;;;;;1.00;1.00;;;;;;;;5005947;28;47042;-78
2023/01/07 05:06:45;;;;;;;;;1.00;1.00;;;;;;;;5002896;28;45646;-78
2023/01/07 05:09:11;;;;;;;;;1.00;1.00;;;;;;;;5004813;28;45451;-82
2023/01/07 05:11:36;;;;;;;;;1.00;1.00;;;;;;;;5004662;28;46248;-81
2023/01/07 05:14:01;;;;;;;;;1.00;1.00;;;;;;;;5005180;28;46274;-78
2023/01/07 05:16:26;;;;;;;;;1.00;1.00;;;;;;;;5001054;28;45251;-77
2023/01/07 05:18:52;;;;;;;;;0.33;0.33;;;;;;;;5002615;28;45481;-79
2023/01/07 05:21:17;;;;;;;;;2.00;2.00;;;;;;;;5009681;28;45390;-81
2023/01/07 05:23:42;;;;;;;;;1.67;1.67;;;;;;;;5005503;28;48184;-81
2023/01/07 05:26:08;;;;;;;;;1.00;1.00;;;;;;;;5000548;28;45336;-77
2023/01/07 05:28:33;;;;;;;;;2.00;2.00;;;;;;;;5001955;28;45304;-78
2023/01/07 05:30:59;;;;;;;;;3.33;2.00;;;;;;;;5002521;28;45319;-78
2023/01/07 05:33:24;;;;;;;;;2.67;2.67;;;;;;;;5002003;28;47735;-76
2023/01/07 05:35:49;;;;;;;;;6.00;3.00;;;;;;;;5002441;28;44806;-79
2023/01/07 05:38:14;;;;;;;;;1.33;1.00;;;;;;;;5000944;28;45444;-77
2023/01/07 05:40:40;;;;;;;;;2.00;2.00;;;;;;;;5001546;28;45450;-77
2023/01/07 05:43:05;;;;;;;;;4.00;4.00;;;;;;;;5001661;28;45454;-77
2023/01/07 05:45:30;;;;;;;;;3.00;3.00;;;;;;;;5002402;28;45463;-79
2023/01/07 05:47:56;;;;;;;;;3.25;3.25;;;;;;;;5002176;28;45325;-79
2023/01/07 05:50:21;;;;;;;;;2.75;2.75;;;;;;;;5000101;28;45502;-78
2023/01/07 05:52:46;;;;;;;;;3.00;3.00;;;;;;;;5001213;28;46054;-77
2023/01/07 05:55:12;;;;;;;;;3.75;3.75;;;;;;;;5001420;28;45338;-77
2023/01/07 05:57:37;;;;;;;;;4.50;3.00;;;;;;;;5003693;28;46223;-79
2023/01/07 06:00:03;;;;;;;;;6.00;4.00;;;;;;;;5002769;28;45427;-82
2023/01/07 06:02:28;;;;;;;;;4.50;3.00;;;;;;;;5008449;28;47208;-79
2023/01/07 06:04:53;;;;;;;;;4.00;4.00;;;;;;;;5000254;28;45387;-78
2023/01/07 06:07:19;;;;;;;;;4.00;3.00;;;;;;;;5003780;28;44780;-78
2023/01/07 06:09:44;;;;;;;;;3.00;3.00;;;;;;;;5000493;28;45539;-76
2023/01/07 06:12:09;;;;;;;;;5.50;4.00;;;;;;;;5001544;28;45414;-76
2023/01/07 06:14:35;;;;;;;;;1.00;1.00;;;;;;;;5000510;28;45230;-76
2023/01/07 06:17:00;;;;;;;;;6.00;4.00;;;;;;;;5001454;28;44872;-76
2023/01/07 06:19:26;;;;;;;;;4.50;3.00;;;;;;;;5002406;28;45569;-76
2023/01/07 06:21:51;;;;;;;;;5.00;5.00;;;;;;;;5005446;28;45414;-76
2023/01/07 06:24:16;;;;;;;;;3.75;3.75;;;;;;;;4998042;28;45434;-77
2023/01/07 06:26:41;;;;;;;;;4.25;4.00;;;;;;;;5003665;28;45540;-75
2023/01/07 06:29:07;;;;;;;;;5.00;5.00;;;;;;;;5000296;28;45366;-76
2023/01/07 06:31:32;;;;;;;;;4.25;2.00;;;;;;;;5003712;28;48228;-76
2023/01/07 06:33:57;;;;;;;;;3.75;3.75;;;;;;;;4999697;28;45949;-76
2023/01/07 06:36:22;;;;;;;;;4.00;4.00;;;;;;;;5003351;28;45259;-77
2023/01/07 06:38:48;;;;;;;;;5.00;5.00;;;;;;;;4999696;28;45564;-76
2023/01/07 06:41:13;;;;;;;;;5.50;3.00;;;;;;;;5001652;28;47204;-75
2023/01/07 06:43:38;;;;;;;;;3.50;3.50;;;;;;;;5000792;28;45354;-75
2023/01/07 06:46:03;;;;;;;;;4.00;4.00;;;;;;;;5001780;28;45396;-75
2023/01/07 06:48:29;;;;;;;;;5.00;5.00;;;;;;;;4999143;28;45414;-75
2023/01/07 06:50:54;;;;;;;;;4.75;4.75;;;;;;;;5000244;28;47057;-76
2023/01/07 06:53:19;;;;;;;;;5.50;4.25;;;;;;;;4999310;28;45288;-77
2023/01/07 06:55:48;;;;;;;;;3.00;3.00;;;;;;;;5003118;28;45312;-76
2023/01/07 06:58:13;;;;;;;;;3.00;3.00;;;;;;;;4998673;28;45435;-75
2023/01/07 07:00:39;;;;;;;;;5.00;3.25;;;;;;;;4998922;28;45382;-75
2023/01/07 07:03:04;;;;;;;;;9.00;4.50;;;;;;;;4999958;28;44858;-75
2023/01/07 07:05:29;;;;;;;;;2.00;2.00;;;;;;;;5001049;28;45319;-75
2023/01/07 07:07:54;;;;;;;;;3.50;3.25;;;;;;;;5001669;28;45590;-76
2023/01/07 07:10:19;;;;;;;;;5.25;5.00;;;;;;;;5002418;28;45530;-76
2023/01/07 07:12:45;;;;;;;;;4.00;3.00;;;;;;;;4998823;28;45439;-75
2023/01/07 07:15:11;;;;;;;;;4.00;4.00;;;;;;;;5000694;28;45399;-75
2023/01/07 07:17:36;;;;;;;;;4.75;4.75;;;;;;;;4999804;28;45463;-75
2023/01/07 07:20:01;;;;;;;;;4.50;4.50;;;;;;;;5002242;28;45380;-76
2023/01/07 07:22:26;;;;;;;;;3.75;3.75;;;;;;;;4999699;28;45431;-75
2023/01/07 07:24:52;;;;;;;;;4.00;4.00;;;;;;;;4999544;28;45327;-75
2023/01/07 07:27:17;;;;;;;;;5.00;4.00;;;;;;;;5003178;28;45892;-76
2023/01/07 07:29:43;;;;;;;;;5.00;5.00;;;;;;;;4999776;28;47065;-77
2023/01/07 07:32:08;;;;;;;;;3.00;3.00;;;;;;;;5001386;28;45295;-76
2023/01/07 07:34:34;;;;;;;;;3.25;3.25;;;;;;;;4997440;28;45251;-78
2023/01/07 07:36:59;;;;;;;;;4.75;4.75;;;;;;;;5002387;28;46051;-80
2023/01/07 07:39:24;;;;;;;;;3.50;3.50;;;;;;;;5001616;28;45378;-76
2023/01/07 07:41:49;;;;;;;;;7.25;5.00;;;;;;;;5003291;28;45338;-78
2023/01/07 07:44:15;;;;;;;;;4.50;4.00;;;;;;;;5000753;28;45530;-77
2023/01/07 07:46:40;;;;;;;;;4.00;4.00;;;;;;;;4998585;28;45286;-75
2023/01/07 07:49:05;;;;;;;;;5.00;3.75;;;;;;;;5000086;28;46611;-76
2023/01/07 07:51:31;;;;;;;;;4.25;4.25;;;;;;;;4999035;28;45320;-78
2023/01/07 07:53:56;;;;;;;;;3.75;3.75;;;;;;;;5000135;28;45300;-77
2023/01/07 07:56:21;;;;;;;;;5.00;3.50;;;;;;;;5000903;28;45289;-76
2023/01/07 07:58:46;;;;;;;;;5.25;3.50;;;;;;;;4997783;28;45343;-75
2023/01/07 08:01:12;;;;;;;;;6.25;4.00;;;;;;;;5003856;28;45334;-76
2023/01/07 08:03:37;;;;;;;;;4.50;4.00;;;;;;;;4997916;28;45457;-78
2023/01/07 08:06:03;;;;;;;;;4.75;4.75;;;;;;;;5002333;28;45128;-76
2023/01/07 08:08:28;;;;;;;;;5.00;5.00;;;;;;;;4999768;28;45201;-76
2023/01/07 08:10:54;;;;;;;;;2.00;2.00;;;;;;;;5002861;28;45406;-76
2023/01/07 08:13:20;;;;;;;;;4.00;4.00;;;;;;;;5012392;28;45370;-77
2023/01/07 08:15:45;;;;;;;;;4.00;4.00;;;;;;;;5015265;28;46579;-79
2023/01/07 08:18:11;;;;;;;;;7.75;4.00;;;;;;;;5010414;28;47580;-75
2023/01/07 08:20:36;;;;;;;;;3.00;3.00;;;;;;;;5008217;28;45433;-77
2023/01/07 08:23:02;;;;;;;;;3.75;3.75;;;;;;;;5012083;28;45342;-77
2023/01/07 08:25:28;;;;;;;;;4.75;4.75;;;;;;;;5013875;28;45315;-76
2023/01/07 08:27:54;;;;;;;;;9.00;4.25;;;;;;;;5003040;28;45943;-76
2023/01/07 08:30:19;;;;;;;;;0.00;0.00;;;;;;;;5017325;28;45297;-77
2023/01/07 08:32:45;;;;;;;;;5.25;4.00;;;;;;;;5006172;28;45499;-77
2023/01/07 08:35:10;;;;;;;;;4.00;3.25;;;;;;;;5015489;28;45753;-76
2023/01/07 08:37:36;;;;;;;;;5.50;3.00;;;;;;;;5010743;28;45422;-76
2023/01/07 08:40:02;;;;;;;;;4.00;4.00;;;;;;;;5016964;28;45233;-77
2023/01/07 08:42:28;;;;;;;;;4.00;4.00;;;;;;;;5015540;28;45403;-77
2023/01/07 08:44:54;;;;;;;;;4.50;4.50;;;;;;;;5015798;28;45649;-81
2023/01/07 08:47:19;;;;;;;;;6.75;3.75;;;;;;;;5010544;28;45896;-77
2023/01/07 08:49:44;;;;;;;;;3.50;3.50;;;;;;;;5000175;28;45297;-77
2023/01/07 08:52:09;;;;;;;;;3.50;3.50;;;;;;;;5006328;28;45240;-77
2023/01/07 08:54:35;;;;;;;;;4.75;4.75;;;;;;;;5003669;28;45712;-76
2023/01/07 08:57:00;;;;;;;;;4.00;4.00;;;;;;;;5003343;28;45444;-76
2023/01/07 08:59:25;;;;;;;;;4.75;3.75;;;;;;;;5001695;28;45364;-77
2023/01/07 09:01:51;;;;;;;;;5.00;4.00;;;;;;;;5004412;28;45469;-78
2023/01/07 09:04:16;;;;;;;;;5.25;5.25;;;;;;;;5019797;28;45424;-79
2023/01/07 09:06:41;;;;;;;;;4.00;4.00;;;;;;;;5013997;28;45480;-78
2023/01/07 09:09:07;;;;;;;;;4.50;3.75;;;;;;;;5019980;28;45487;-81
2023/01/07 09:11:32;;;;;;;;;5.75;4.75;;;;;;;;5014497;28;45478;-78
2023/01/07 09:13:57;;;;;;;;;3.50;3.50;;;;;;;;5018493;28;45520;-82
2023/01/07 09:16:22;;;;;;;;;5.50;4.50;;;;;;;;5016227;28;47502;-79
2023/01/07 09:18:48;;;;;;;;;5.00;5.00;;;;;;;;5019437;28;45383;-79
2023/01/07 09:21:13;;;;;;;;;3.75;3.75;;;;;;;;5005024;28;45534;-83
2023/01/07 09:23:39;;;;;;;;;6.00;6.00;;;;;;;;5019790;28;45656;-80
2023/01/07 09:26:04;;;;;;;;;3.75;3.75;;;;;;;;5016299;28;45483;-81
2023/01/07 09:28:29;;;;;;;;;5.50;4.75;;;;;;;;5009939;28;45635;-82
2023/01/07 09:30:55;;;;;;;;;8.50;6.75;;;;;;;;5017710;28;45458;-78
2023/01/07 09:33:20;;;;;;;;;4.25;3.25;;;;;;;;5013957;28;45530;-80
2023/01/07 09:35:45;;;;;;;;;5.25;5.25;;;;;;;;5013882;28;46345;-78
2023/01/07 09:38:10;;;;;;;;;5.00;5.00;;;;;;;;5014281;28;45469;-77
2023/01/07 09:40:40;;;;;;;;;6.00;5.00;;;;;;;;5019125;28;45506;-79
2023/01/07 09:43:21;;;;;;;;;3.00;3.00;;;;;;;;5010318;28;45520;-80
2023/01/07 09:45:48;;;;;;;;;4.25;4.25;;;;;;;;5014036;28;47112;-79
2023/01/07 09:48:18;;;;;;;;;5.75;5.25;;;;;;;;5008404;28;45616;-80
2023/01/07 09:50:56;;;;;;;;;9.00;5.25;;;;;;;;5013074;28;45482;-78
2023/01/07 09:53:25;;;;;;;;;5.75;5.00;;;;;;;;5012864;28;45427;-80
2023/01/07 09:55:51;;;;;;;;;7.00;5.75;;;;;;;;5014205;28;47121;-79
2023/01/07 09:58:18;;;;;;;;;4.25;4.00;;;;;;;;5011061;28;45959;-82
2023/01/07 10:01:02;;;;;;;;;4.75;4.75;;;;;;;;5017257;28;45424;-80
2023/01/07 10:03:38;;;;;;;;;4.00;4.00;;;;;;;;5014021;28;45780;-80
2023/01/07 10:06:06;;;;;;;;;5.00;5.00;;;;;;;;5012230;28;45625;-79
2023/01/07 10:08:49;;;;;;;;;5.00;4.50;;;;;;;;5009455;28;45456;-78
2023/01/07 10:11:14;;;;;;;;;5.50;3.50;;;;;;;;5011796;28;45501;-78
2023/01/07 10:13:42;;;;;;;;;5.75;4.50;;;;;;;;5016064;28;45457;-82
2023/01/07 10:16:17;;;;;;;;;3.25;3.25;;;;;;;;5013857;28;47768;-78
2023/01/07 10:18:50;;;;;;;;;2.00;2.00;;;;;;;;5013521;28;45552;-83
2023/01/07 10:21:19;;;;;;;;;4.75;4.75;;;;;;;;5005237;28;45502;-80
2023/01/07 10:23:48;;;;;;;;;5.75;3.00;;;;;;;;5016421;28;45546;-77
2023/01/07 10:26:32;;;;;;;;;4.00;3.00;;;;;;;;5013862;28;46323;-79
2023/01/07 10:29:05;;;;;;;;;5.25;4.50;;;;;;;;5012116;28;45363;-82
2023/01/07 10:31:31;;;;;;;;;4.00;4.00;;;;;;;;5011968;28;45226;-81
2023/01/07 10:33:58;;;;;;;;;7.00;5.50;;;;;;;;5014932;28;45442;-78
2023/01/07 10:36:23;;;;;;;;;4.50;4.00;;;;;;;;5015989;28;45406;-79
2023/01/07 10:39:08;;;;;;;;;5.75;5.00;;;;;;;;5012238;28;45482;-79
2023/01/07 10:41:39;;;;;;;;;4.00;4.00;;;;;;;;5000927;28;45329;-81
2023/01/07 10:44:04;;;;;;;;;8.00;5.00;;;;;;;;5016729;28;45424;-77
2023/01/07 10:46:34;;;;;;;;;4.00;4.00;;;;;;;;5002457;28;45442;-77
2023/01/07 10:49:18;;;;;;;;;5.25;4.00;;;;;;;;5005074;28;45462;-77
2023/01/07 10:51:46;;;;;;;;;5.00;3.50;;;;;;;;5000738;28;45556;-77
2023/01/07 10:54:32;;;;;;;;;6.25;6.25;;;;;;;;5005830;28;45222;-77
2023/01/07 10:57:02;;;;;;;;;3.00;3.00;;;;;;;;5006701;28;47660;-78
2023/01/07 10:59:27;;;;;;;;;4.00;4.00;;;;;;;;5007477;28;45327;-79
2023/01/07 11:01:55;;;;;;;;;5.00;5.00;;;;;;;;5010701;28;45336;-78
2023/01/07 11:04:20;;;;;;;;;3.50;3.50;;;;;;;;5021678;28;45888;-76
2023/01/07 11:07:02;;;;;;;;;6.50;5.00;;;;;;;;5011523;28;45268;-82
2023/01/07 11:09:35;;;;;;;;;4.00;3.00;;;;;;;;5009991;28;45366;-77
2023/01/07 11:12:21;;;;;;;;;7.00;6.00;;;;;;;;5008069;28;45466;-78
2023/01/07 11:14:48;;;;;;;;;5.25;5.00;;;;;;;;4997670;28;46049;-78
2023/01/07 11:17:25;;;;;;;;;4.00;4.00;;;;;;;;5016499;28;45727;-79
2023/01/07 11:19:51;;;;;;;;;5.00;5.00;;;;;;;;5013555;28;45396;-75
2023/01/07 11:22:25;;;;;;;;;3.25;3.25;;;;;;;;5013581;28;45425;-79
2023/01/07 11:24:51;;;;;;;;;4.50;4.00;;;;;;;;5016286;28;45380;-75
2023/01/07 11:27:17;;;;;;;;;3.75;3.75;;;;;;;;5013827;28;46995;-76
2023/01/07 11:29:54;;;;;;;;;5.00;3.00;;;;;;;;5013773;28;45272;-76
2023/01/07 11:32:24;;;;;;;;;4.00;4.00;;;;;;;;5008384;28;45316;-75
2023/01/07 11:34:55;;;;;;;;;3.00;3.00;;;;;;;;5014743;28;45424;-74
2023/01/07 11:37:33;;;;;;;;;3.75;3.75;;;;;;;;5007792;28;45335;-79
2023/01/07 11:40:00;;;;;;;;;4.50;4.50;;;;;;;;5017279;28;45395;-78
2023/01/07 11:42:37;;;;;;;;;4.25;3.75;;;;;;;;5007093;28;45308;-77
2023/01/07 11:45:13;;;;;;;;;3.25;1.50;;;;;;;;5009485;28;45253;-77
2023/01/07 11:47:44;;;;;;;;;3.67;3.33;;;;;;;;5016100;28;48321;-76
2023/01/07 11:50:19;;;;;;;;;3.75;3.75;;;;;;;;5006225;28;45513;-77
2023/01/07 11:52:53;;;;;;;;;7.75;6.00;;;;;;;;5007642;28;45248;-76
2023/01/07 11:55:19;;;;;;;;;7.00;4.25;;;;;;;;5013403;28;45307;-80
2023/01/07 11:57:51;;;;;;;;;4.00;2.67;;;;;;;;5012761;28;45474;-77
2023/01/07 12:00:16;;;;;;;;;4.00;4.00;;;;;;;;5014109;28;45440;-77
2023/01/07 12:02:42;;;;;;;;;3.00;3.00;;;;;;;;5015599;28;44786;-76
2023/01/07 12:05:25;;;;;;;;;5.75;4.25;;;;;;;;5008929;28;45427;-77
2023/01/07 12:07:50;;;;;;;;;6.75;4.50;;;;;;;;5007268;28;45658;-76
2023/01/07 12:10:35;;;;;;;;;4.00;4.00;;;;;;;;5016250;28;45469;-77
2023/01/07 12:13:02;;;;;;;;;6.50;3.75;;;;;;;;5013392;28;45365;-78
2023/01/07 12:15:30;;;;;;;;;4.25;4.00;;;;;;;;5018590;28;44861;-76
2023/01/07 12:18:18;;;;;;;;;3.75;3.00;;;;;;;;5011489;28;45385;-78
2023/01/07 12:20:43;;;;;;;;;3.00;3.00;;;;;;;;5006813;28;45410;-78
2023/01/07 12:23:11;;;;;;;;;5.00;5.00;;;;;;;;5007832;28;45395;-77
2023/01/07 12:25:55;;;;;;;;;6.25;5.00;;;;;;;;5017262;28;45358;-78
2023/01/07 12:28:34;;;;;;;;;3.00;3.00;;;;;;;;5003044;28;45187;-78
2023/01/07 12:31:02;;;;;;;;;4.33;3.67;;;;;;;;5013975;28;45335;-78
2023/01/07 12:33:28;;;;;;;;;5.00;4.00;;;;;;;;5005380;28;44791;-76
2023/01/07 12:35:56;;;;;;;;;8.75;5.50;;;;;;;;5012113;28;45772;-75
2023/01/07 12:38:25;;;;;;;;;4.00;3.00;;;;;;;;5010606;28;45577;-75
2023/01/07 12:40:52;;;;;;;;;6.00;5.00;;;;;;;;5017905;28;45512;-75
2023/01/07 12:43:27;;;;;;;;;4.67;4.00;;;;;;;;5007013;28;45284;-76
2023/01/07 12:45:54;;;;;;;;;4.00;4.00;;;;;;;;5012719;28;44769;-75
2023/01/07 12:48:19;;;;;;;;;6.00;4.00;;;;;;;;5007399;28;45285;-76
2023/01/07 12:50:47;;;;;;;;;5.25;5.25;;;;;;;;5013016;28;45521;-77
2023/01/07 12:53:23;;;;;;;;;6.25;4.75;;;;;;;;5005053;28;45551;-78
2023/01/07 12:55:52;;;;;;;;;3.67;3.67;;;;;;;;5013147;28;45653;-80
2023/01/07 12:58:20;;;;;;;;;7.25;5.00;;;;;;;;5004147;28;46764;-81
2023/01/07 13:00:55;;;;;;;;;6.00;6.00;;;;;;;;5011698;28;45300;-77
2023/01/07 13:03:30;;;;;;;;;6.75;5.75;;;;;;;;5011291;28;45428;-77
2023/01/07 13:05:58;;;;;;;;;8.75;5.00;;;;;;;;5017232;28;46054;-77
2023/01/07 13:08:26;;;;;;;;;2.67;2.67;;;;;;;;5015413;28;45656;-78
2023/01/07 13:11:12;;;;;;;;;5.50;4.50;;;;;;;;5009154;28;45335;-77
2023/01/07 13:13:49;;;;;;;;;4.00;4.00;;;;;;;;5015354;28;45387;-76
2023/01/07 13:16:14;;;;;;;;;7.50;5.00;;;;;;;;5020673;28;45267;-76
2023/01/07 13:18:40;;;;;;;;;10.00;7.00;;;;;;;;5016170;28;47054;-80
2023/01/07 13:21:08;;;;;;;;;4.75;4.75;;;;;;;;5017518;28;45382;-76
2023/01/07 13:23:45;;;;;;;;;13.75;10.75;;;;;;;;5011988;28;45499;-76
2023/01/07 13:26:16;;;;;;;;;7.25;6.25;;;;;;;;5016741;28;45292;-77
2023/01/07 13:28:47;;;;;;;;;7.00;4.00;;;;;;;;5008420;28;45391;-76
2023/01/07 13:31:12;;;;;;;;;5.50;5.50;;;;;;;;5016493;28;45934;-81
2023/01/07 13:33:46;;;;;;;;;6.00;6.00;;;;;;;;5010155;28;45309;-78
2023/01/07 13:36:17;;;;;;;;;1.25;1.00;;;;;;;;5011816;28;46136;-76
2023/01/07 13:38:57;;;;;;;;;7.75;4.50;;;;;;;;5009122;28;45726;-76
2023/01/07 13:41:23;;;;;;;;;4.50;4.50;;;;;;;;5015900;28;45450;-77
2023/01/07 13:43:48;;;;;;;;;6.50;5.25;;;;;;;;5006456;28;45225;-77
2023/01/07 13:46:18;;;;;;;;;10.00;8.50;;;;;;;;5019260;28;45404;-79
2023/01/07 13:48:51;;;;;;;;;6.25;6.25;;;;;;;;5017459;28;46093;-76
2023/01/07 13:51:23;;;;;;;;;2.00;2.00;;;;;;;;5003910;28;45372;-76
2023/01/07 13:53:49;;;;;;;;;11.00;7.50;;;;;;;;5014262;28;45417;-77
2023/01/07 13:56:14;;;;;;;;;10.00;6.75;;;;;;;;5015360;28;44852;-76
2023/01/07 13:58:46;;;;;;;;;3.75;3.50;;;;;;;;5012787;28;45156;-78
2023/01/07 14:01:16;;;;;;;;;10.25;7.50;;;;;;;;5015964;28;45085;-75
2023/01/07 14:03:41;;;;;;;;;5.25;4.25;;;;;;;;5004549;28;45395;-77
2023/01/07 14:06:19;;;;;;;;;6.25;6.25;;;;;;;;5016021;28;45604;-77
2023/01/07 14:08:49;;;;;;;;;8.00;8.00;;;;;;;;5018475;28;46796;-78
2023/01/07 14:11:15;;;;;;;;;5.00;5.00;;;;;;;;5015993;28;45450;-79
2023/01/07 14:13:53;;;;;;;;;5.00;5.00;;;;;;;;5015066;28;45569;-78
2023/01/07 14:16:28;;;;;;;;;7.25;5.75;;;;;;;;5015786;28;45327;-80
2023/01/07 14:18:53;;;;;;;;;11.50;8.25;;;;;;;;5020757;28;45299;-76
2023/01/07 14:21:57;;;;;;;;;8.00;6.50;;;;;;;;5017782;28;45487;-78
2023/01/07 14:24:25;;;;;;;;;13.00;7.75;;;;;;;;4992276;28;45365;-77
2023/01/07 14:27:06;;;;;;;;;12.75;10.50;;;;;;;;4991797;28;45812;-77
2023/01/07 14:29:33;;;;;;;;;9.25;7.25;;;;;;;;4994470;28;45222;-77
2023/01/07 14:32:11;;;;;;;;;12.00;7.00;;;;;;;;5018790;28;45307;-77
2023/01/07 14:34:36;;;;;;;;;8.00;8.00;;;;;;;;5019833;28;45551;-76
2023/01/07 14:37:03;;;;;;;;;6.50;6.50;;;;;;;;5023637;28;44952;-77
2023/01/07 14:39:39;;;;;;;;;6.50;3.25;;;;;;;;5020089;28;45406;-77
2023/01/07 14:42:20;;;;;;;;;6.25;5.50;;;;;;;;5009949;28;45352;-75
2023/01/07 14:44:45;;;;;;;;;6.00;6.00;;;;;;;;5017300;28;45497;-76
2023/01/07 14:47:11;;;;;;;;;6.25;5.25;;;;;;;;5017476;28;46730;-76
2023/01/07 14:49:42;;;;;;;;;8.00;6.50;;;;;;;;5008779;28;46013;-76
2023/01/07 14:52:28;;;;;;;;;5.50;4.25;;;;;;;;5016857;28;45771;-77
2023/01/07 14:55:04;;;;;;;;;9.50;7.00;;;;;;;;5010558;28;45406;-75
2023/01/07 14:57:36;;;;;;;;;10.00;7.75;;;;;;;;5005711;28;45607;-73